Tor Futura — OZZE2 — position and weather

sailwx.info

Track history (hours):
 
Tides and Currents Weather Stations Pressure Air Temp Water Temp Dewpoint Dewpoint Depression Visibility Wind Speed Wind Dir Waves Ship Positions

Tor Futura

Last reported at 2017-Dec-11 17:00 UTC. Time now 2017-Dec-11 17:20 UTC.
Position N 55°42' E 012°36'.

Length 183.1 m; beam 25.2 m; draft 7.8 m.

Type: Ship. MMSI: 219927000.

Date/timePositionNaut miles runAvg speedWind from/ knotsBaromVisibWave heightAir tempDewpointWater temp
2017-Dec-11 17:00N 55°42' E 012°36'1 1.1
2017-Dec-11 16:30N 55°42' E 012°37'510.0
2017-Dec-11 16:01N 55°38' E 012°42'713.5
2017-Dec-11 15:30N 55°32' E 012°43'815.5
2017-Dec-11 15:00N 55°24' E 012°41'613.0
2017-Dec-11 14:30N 55°18' E 012°44'816.4
2017-Dec-11 14:00N 55°16' E 012°58'816.8
2017-Dec-11 13:30N 55°16' E 013°13'3016.4
2017-Dec-11 11:40N 55°14' E 014°06'616.7
2017-Dec-11 11:20N 55°14' E 014°16'517.2
2017-Dec-11 11:01N 55°18' E 014°22'917.7
2017-Dec-11 10:30N 55°24' E 014°33'917.2
2017-Dec-11 10:00N 55°27' E 014°48'917.5
2017-Dec-11 09:30N 55°27' E 015°03'917.5
2017-Dec-11 08:59N 55°28' E 015°19'29 0.8
2017-Dec-09 21:03N 55°02' E 015°41'116.3
2017-Dec-09 21:00N 55°01' E 015°40'916.3
2017-Dec-09 20:26N 54°59' E 015°24'716.5
2017-Dec-09 20:00N 54°58' E 015°12'816.7
2017-Dec-09 19:30N 54°57' E 014°57'816.6
2017-Dec-09 19:00N 54°57' E 014°43'816.6
2017-Dec-09 18:30N 54°57' E 014°29'816.3
2017-Dec-09 18:00N 54°57' E 014°14'916.0
2017-Dec-09 17:28N 54°58' E 013°59'3016.4
2017-Dec-09 15:37N 55°10' E 013°11'216.1
2017-Dec-09 15:30N 55°11' E 013°08'816.7
2017-Dec-09 15:00N 55°14' E 012°54'816.6
2017-Dec-09 14:30N 55°17' E 012°41'714.3
2017-Dec-09 14:00N 55°24' E 012°39'714.4
2017-Dec-09 13:30N 55°31' E 012°42'611.5
2017-Dec-09 13:01N 55°37' E 012°42'612.0
2017-Dec-09 12:30N 55°43' E 012°38'1 2.8
2017-Dec-09 11:59N 55°42' E 012°36'0 0.0
2017-Dec-09 11:29N 55°42' E 012°36'0 0.0
2017-Dec-09 10:59N 55°42' E 012°36'0 0.4
2017-Dec-09 10:30N 55°42' E 012°36'3 6.8
2017-Dec-09 10:00N 55°44' E 012°41'612.5
2017-Dec-09 09:31N 55°51' E 012°41'713.2
2017-Dec-09 09:00N 55°57' E 012°40'713.0
2017-Dec-09 08:31N 56°04' E 012°38'714.0
2017-Dec-09 08:00N 56°08' E 012°28'714.2
2017-Dec-09 07:30N 56°11' E 012°16'2 0.1
2017-Dec-08 09:48N 56°10' E 012°19'413.4
2017-Dec-08 09:30N 56°10' E 012°26'714.1
2017-Dec-08 09:00N 56°05' E 012°36'713.9
2017-Dec-08 08:30N 55°59' E 012°42'714.4
2017-Dec-08 08:00N 55°52' E 012°44'714.6
2017-Dec-08 07:30N 55°45' E 012°41'4 6.6
2017-Dec-08 06:54N 55°42' E 012°36'0 0.0
2017-Dec-08 06:30N 55°42' E 012°36'0 0.6
2017-Dec-08 06:00N 55°42' E 012°36'3 6.6
2017-Dec-08 05:30N 55°40' E 012°40'510.8
2017-Dec-08 05:00N 55°35' E 012°42'612.6
2017-Dec-08 04:31N 55°28' E 012°42'817.0
2017-Dec-08 04:01N 55°20' E 012°40'815.8
2017-Dec-08 03:30N 55°16' E 012°52'917.3
2017-Dec-08 03:00N 55°13' E 013°06'3117.5
2017-Dec-08 01:14N 55°01' E 013°56'717.4
2017-Dec-08 00:52N 54°58' E 014°07'617.3
2017-Dec-08 00:30N 54°58' E 014°17'917.0
2017-Dec-08 00:00N 54°58' E 014°32'816.6
2017-Dec-07 23:31N 54°57' E 014°46'816.3
2017-Dec-07 23:00N 54°57' E 015°01'916.2
2017-Dec-07 22:27N 54°58' E 015°16'816.7
2017-Dec-07 21:59N 54°59' E 015°30'816.8
2017-Dec-07 21:30N 55°00' E 015°44'9516.6
2017-Dec-07 15:48N 55°18' E 018°27'516.3
2017-Dec-07 15:28N 55°19' E 018°36'4815.7
2017-Dec-07 12:23N 55°32' E 019°58'1015.7
2017-Dec-07 11:44N 55°35' E 020°15'715.4
2017-Dec-07 11:16N 55°37' E 020°27'715.5
2017-Dec-07 10:49N 55°40' E 020°38'815.7
2017-Dec-07 10:20N 55°42' E 020°51'  
2017-Dec-04 10:30N 55°27' E 014°47'1218.8
2017-Dec-04 09:51N 55°27' E 015°09'2118.9
2017-Dec-04 08:44N 55°28' E 015°46'519.0
2017-Dec-04 08:27N 55°29' E 015°56'918.8
2017-Dec-04 07:57N 55°29' E 016°12'818.7
2017-Dec-04 07:30N 55°30' E 016°27'33 0.9
2017-Dec-02 20:18N 55°25' E 015°29'516.2
2017-Dec-02 20:00N 55°25' E 015°21'816.5
2017-Dec-02 19:30N 55°24' E 015°06'816.4
2017-Dec-02 19:00N 55°23' E 014°52'815.8
2017-Dec-02 18:30N 55°22' E 014°38'816.3
2017-Dec-02 18:00N 55°16' E 014°28'816.3
2017-Dec-02 17:30N 55°11' E 014°17'2216.5
2017-Dec-02 16:09N 55°12' E 013°38'416.5
2017-Dec-02 15:53N 55°13' E 013°30'716.3
2017-Dec-02 15:27N 55°13' E 013°18'716.3
2017-Dec-02 15:00N 55°14' E 013°05'816.5
2017-Dec-02 14:30N 55°15' E 012°51'815.8
2017-Dec-02 14:00N 55°19' E 012°38'815.5
2017-Dec-02 13:30N 55°26' E 012°40'714.2
2017-Dec-02 13:00N 55°33' E 012°42'611.5
2017-Dec-02 12:31N 55°39' E 012°41'4 8.6
2017-Dec-02 12:00N 55°42' E 012°36'1 1.0
2017-Dec-02 11:29N 55°42' E 012°36'0 0.0
2017-Dec-02 10:59N 55°42' E 012°36'0 0.0
2017-Dec-02 10:30N 55°42' E 012°36'1 1.5
2017-Dec-02 10:00N 55°43' E 012°37'611.1
2017-Dec-02 09:30N 55°47' E 012°42'612.6
2017-Dec-02 09:00N 55°53' E 012°40'612.0
2017-Dec-02 08:30N 55°59' E 012°40'612.6
2017-Dec-02 08:00N 56°05' E 012°35'713.7
2017-Dec-02 07:30N 56°09' E 012°25'714.3
2017-Dec-02 07:00N 56°11' E 012°13'1314.7
2017-Dec-02 06:09N 56°10' E 011°50'  
Track history (hours):
 
Tides and Currents Weather Stations Pressure Air Temp Water Temp Dewpoint Dewpoint Depression Visibility Wind Speed Wind Dir Waves Ship Positions

Tor Futura

Last reported at 2017-Dec-11 17:00 UTC. Time now 2017-Dec-11 17:20 UTC.
Position N 55°42' E 012°36'.

Length 183.1 m; beam 25.2 m; draft 7.8 m.

Type: Ship. MMSI: 219927000.

Date/timePositionNaut miles runAvg speedWind from/ knotsBaromVisibWave heightAir tempDewpointWater temp
2017-Dec-11 17:00N 55°42' E 012°36'1 1.1
2017-Dec-11 16:30N 55°42' E 012°37'510.0
2017-Dec-11 16:01N 55°38' E 012°42'713.5
2017-Dec-11 15:30N 55°32' E 012°43'815.5
2017-Dec-11 15:00N 55°24' E 012°41'613.0
2017-Dec-11 14:30N 55°18' E 012°44'816.4
2017-Dec-11 14:00N 55°16' E 012°58'816.8
2017-Dec-11 13:30N 55°16' E 013°13'3016.4
2017-Dec-11 11:40N 55°14' E 014°06'616.7
2017-Dec-11 11:20N 55°14' E 014°16'517.2
2017-Dec-11 11:01N 55°18' E 014°22'917.7
2017-Dec-11 10:30N 55°24' E 014°33'917.2
2017-Dec-11 10:00N 55°27' E 014°48'917.5
2017-Dec-11 09:30N 55°27' E 015°03'917.5
2017-Dec-11 08:59N 55°28' E 015°19'29 0.8
2017-Dec-09 21:03N 55°02' E 015°41'116.3
2017-Dec-09 21:00N 55°01' E 015°40'916.3
2017-Dec-09 20:26N 54°59' E 015°24'716.5
2017-Dec-09 20:00N 54°58' E 015°12'816.7
2017-Dec-09 19:30N 54°57' E 014°57'816.6
2017-Dec-09 19:00N 54°57' E 014°43'816.6
2017-Dec-09 18:30N 54°57' E 014°29'816.3
2017-Dec-09 18:00N 54°57' E 014°14'916.0
2017-Dec-09 17:28N 54°58' E 013°59'3016.4
2017-Dec-09 15:37N 55°10' E 013°11'216.1
2017-Dec-09 15:30N 55°11' E 013°08'816.7
2017-Dec-09 15:00N 55°14' E 012°54'816.6
2017-Dec-09 14:30N 55°17' E 012°41'714.3
2017-Dec-09 14:00N 55°24' E 012°39'714.4
2017-Dec-09 13:30N 55°31' E 012°42'611.5
2017-Dec-09 13:01N 55°37' E 012°42'612.0
2017-Dec-09 12:30N 55°43' E 012°38'1 2.8
2017-Dec-09 11:59N 55°42' E 012°36'0 0.0
2017-Dec-09 11:29N 55°42' E 012°36'0 0.0
2017-Dec-09 10:59N 55°42' E 012°36'0 0.4
2017-Dec-09 10:30N 55°42' E 012°36'3 6.8
2017-Dec-09 10:00N 55°44' E 012°41'612.5
2017-Dec-09 09:31N 55°51' E 012°41'713.2
2017-Dec-09 09:00N 55°57' E 012°40'713.0
2017-Dec-09 08:31N 56°04' E 012°38'714.0
2017-Dec-09 08:00N 56°08' E 012°28'714.2
2017-Dec-09 07:30N 56°11' E 012°16'2 0.1
2017-Dec-08 09:48N 56°10' E 012°19'413.4
2017-Dec-08 09:30N 56°10' E 012°26'714.1
2017-Dec-08 09:00N 56°05' E 012°36'713.9
2017-Dec-08 08:30N 55°59' E 012°42'714.4
2017-Dec-08 08:00N 55°52' E 012°44'714.6
2017-Dec-08 07:30N 55°45' E 012°41'4 6.6
2017-Dec-08 06:54N 55°42' E 012°36'0 0.0
2017-Dec-08 06:30N 55°42' E 012°36'0 0.6
2017-Dec-08 06:00N 55°42' E 012°36'3 6.6
2017-Dec-08 05:30N 55°40' E 012°40'510.8
2017-Dec-08 05:00N 55°35' E 012°42'612.6
2017-Dec-08 04:31N 55°28' E 012°42'817.0
2017-Dec-08 04:01N 55°20' E 012°40'815.8
2017-Dec-08 03:30N 55°16' E 012°52'917.3
2017-Dec-08 03:00N 55°13' E 013°06'3117.5
2017-Dec-08 01:14N 55°01' E 013°56'717.4
2017-Dec-08 00:52N 54°58' E 014°07'617.3
2017-Dec-08 00:30N 54°58' E 014°17'917.0
2017-Dec-08 00:00N 54°58' E 014°32'816.6
2017-Dec-07 23:31N 54°57' E 014°46'816.3
2017-Dec-07 23:00N 54°57' E 015°01'916.2
2017-Dec-07 22:27N 54°58' E 015°16'816.7
2017-Dec-07 21:59N 54°59' E 015°30'816.8
2017-Dec-07 21:30N 55°00' E 015°44'9516.6
2017-Dec-07 15:48N 55°18' E 018°27'516.3
2017-Dec-07 15:28N 55°19' E 018°36'4815.7
2017-Dec-07 12:23N 55°32' E 019°58'1015.7
2017-Dec-07 11:44N 55°35' E 020°15'715.4
2017-Dec-07 11:16N 55°37' E 020°27'715.5
2017-Dec-07 10:49N 55°40' E 020°38'815.7
2017-Dec-07 10:20N 55°42' E 020°51'  
2017-Dec-04 10:30N 55°27' E 014°47'1218.8
2017-Dec-04 09:51N 55°27' E 015°09'2118.9
2017-Dec-04 08:44N 55°28' E 015°46'519.0
2017-Dec-04 08:27N 55°29' E 015°56'918.8
2017-Dec-04 07:57N 55°29' E 016°12'818.7
2017-Dec-04 07:30N 55°30' E 016°27'33 0.9
2017-Dec-02 20:18N 55°25' E 015°29'516.2
2017-Dec-02 20:00N 55°25' E 015°21'816.5
2017-Dec-02 19:30N 55°24' E 015°06'816.4
2017-Dec-02 19:00N 55°23' E 014°52'815.8
2017-Dec-02 18:30N 55°22' E 014°38'816.3
2017-Dec-02 18:00N 55°16' E 014°28'816.3
2017-Dec-02 17:30N 55°11' E 014°17'2216.5
2017-Dec-02 16:09N 55°12' E 013°38'416.5
2017-Dec-02 15:53N 55°13' E 013°30'716.3
2017-Dec-02 15:27N 55°13' E 013°18'716.3
2017-Dec-02 15:00N 55°14' E 013°05'816.5
2017-Dec-02 14:30N 55°15' E 012°51'815.8
2017-Dec-02 14:00N 55°19' E 012°38'815.5
2017-Dec-02 13:30N 55°26' E 012°40'714.2
2017-Dec-02 13:00N 55°33' E 012°42'611.5
2017-Dec-02 12:31N 55°39' E 012°41'4 8.6
2017-Dec-02 12:00N 55°42' E 012°36'1 1.0
2017-Dec-02 11:29N 55°42' E 012°36'0 0.0
2017-Dec-02 10:59N 55°42' E 012°36'0 0.0
2017-Dec-02 10:30N 55°42' E 012°36'1 1.5
2017-Dec-02 10:00N 55°43' E 012°37'611.1
2017-Dec-02 09:30N 55°47' E 012°42'612.6
2017-Dec-02 09:00N 55°53' E 012°40'612.0
2017-Dec-02 08:30N 55°59' E 012°40'612.6
2017-Dec-02 08:00N 56°05' E 012°35'713.7
2017-Dec-02 07:30N 56°09' E 012°25'714.3
2017-Dec-02 07:00N 56°11' E 012°13'1314.7
2017-Dec-02 06:09N 56°10' E 011°50'  

Dump ship's entire track history